Time;durP1;ratioP1;P1;durP2;ratioP2;P2;SDS_P1;SDS_P2;PMS_P1;PMS_P2;Temp;Humidity;BMP_temperature;BMP_pressure;BME280_temperature;BME280_humidity;BME280_pressure;Samples;Min_cycle;Max_cycle;Signal;HPM_P1;HPM_P2
2021/09/04 00:02:11;;;;;;;29.13;18.33;;;;;;;13.41;85.79;102051.16;5042504;28;20178;-71
2021/09/04 00:04:38;;;;;;;31.58;18.77;;;;;;;13.42;85.21;102045.84;5042887;28;20052;-71
2021/09/04 00:07:04;;;;;;;29.00;18.00;;;;;;;13.49;84.74;102050.91;5048021;28;20104;-71
2021/09/04 00:09:30;;;;;;;31.55;17.85;;;;;;;13.25;85.71;102043.72;5040708;28;20117;-71
2021/09/04 00:11:55;;;;;;;28.17;17.60;;;;;;;13.28;85.95;102047.16;5042206;28;20041;-71
2021/09/04 00:14:21;;;;;;;32.67;18.55;;;;;;;13.32;85.82;102039.16;5023929;28;20324;-71
2021/09/04 00:16:46;;;;;;;34.13;18.00;;;;;;;13.37;85.17;102049.50;5042382;28;20033;-71
2021/09/04 00:19:11;;;;;;;31.45;19.45;;;;;;;13.32;85.37;102046.19;5041980;28;20214;-71
2021/09/04 00:21:37;;;;;;;32.72;18.75;;;;;;;13.31;85.52;102042.69;5042134;28;20025;-71
2021/09/04 00:24:03;;;;;;;33.72;19.75;;;;;;;13.21;85.96;102046.53;5042594;28;20048;-71
2021/09/04 00:26:28;;;;;;;32.38;20.00;;;;;;;13.13;86.28;102044.09;5040696;28;20219;-71
2021/09/04 00:28:54;;;;;;;33.28;19.25;;;;;;;13.22;86.23;102037.69;5040943;28;20037;-71
2021/09/04 00:31:19;;;;;;;32.70;19.70;;;;;;;13.07;86.61;102036.44;5040401;28;20350;-71
2021/09/04 00:33:45;;;;;;;34.40;18.48;;;;;;;13.28;85.54;102031.38;5040774;28;20033;-71
2021/09/04 00:36:10;;;;;;;31.75;19.08;;;;;;;13.22;85.88;102032.44;5040954;28;20025;-71
2021/09/04 00:38:36;;;;;;;34.08;18.60;;;;;;;13.17;86.02;102027.34;5041960;28;20033;-71
2021/09/04 00:41:01;;;;;;;31.80;16.90;;;;;;;13.31;85.27;102029.53;5024294;28;20260;-71
2021/09/04 00:43:26;;;;;;;26.55;18.02;;;;;;;13.08;86.01;102032.91;5040234;28;20328;-71
2021/09/04 00:45:52;;;;;;;33.55;17.85;;;;;;;13.00;86.26;102030.50;5040592;28;20029;-71
2021/09/04 00:48:17;;;;;;;28.60;18.95;;;;;;;12.88;86.89;102030.91;5040264;28;20037;-71
2021/09/04 00:50:43;;;;;;;29.50;18.63;;;;;;;12.91;86.41;102029.94;5041401;28;20112;-71
2021/09/04 00:53:08;;;;;;;29.42;18.67;;;;;;;12.96;86.28;102025.41;5017916;28;20032;-71
2021/09/04 00:55:33;;;;;;;32.95;18.10;;;;;;;13.00;86.12;102024.38;5020020;28;20232;-71
2021/09/04 00:57:59;;;;;;;37.55;18.92;;;;;;;13.04;86.21;102023.38;5033778;28;20033;-71
2021/09/04 01:00:24;;;;;;;31.38;19.10;;;;;;;12.91;86.32;102014.16;5040046;28;20205;-71
2021/09/04 01:02:50;;;;;;;36.72;19.42;;;;;;;12.85;86.63;102017.84;5040359;28;20033;-71
2021/09/04 01:05:15;;;;;;;38.90;20.13;;;;;;;12.87;86.38;102013.41;5040166;28;20240;-71
2021/09/04 01:07:41;;;;;;;28.60;19.08;;;;;;;12.78;86.71;102011.06;5040190;28;20033;-71
2021/09/04 01:10:07;;;;;;;32.05;19.42;;;;;;;12.76;86.95;102010.25;5041373;28;20037;-71
2021/09/04 01:12:32;;;;;;;34.88;19.05;;;;;;;12.85;86.11;102007.34;5019657;28;20105;-71
2021/09/04 01:14:58;;;;;;;36.30;18.52;;;;;;;12.79;86.61;102010.16;5022118;28;20038;-71
2021/09/04 01:17:24;;;;;;;35.90;18.63;;;;;;;12.87;86.03;102010.78;5024892;28;20025;-71
2021/09/04 01:19:49;;;;;;;37.70;18.88;;;;;;;12.77;86.35;102010.22;5023646;28;20033;-71
2021/09/04 01:22:15;;;;;;;33.35;18.80;;;;;;;12.69;86.68;102009.56;5039532;28;20341;-71
2021/09/04 01:24:40;;;;;;;28.33;18.67;;;;;;;12.70;86.86;102011.31;5040863;28;20029;-71
2021/09/04 01:27:06;;;;;;;38.00;18.85;;;;;;;12.67;87.04;102009.63;5041413;28;20201;-71
2021/09/04 01:29:31;;;;;;;34.35;18.48;;;;;;;12.73;86.55;102008.56;5039256;28;20064;-71
2021/09/04 01:31:56;;;;;;;36.30;19.00;;;;;;;12.60;87.16;102005.44;5039833;28;20231;-71
2021/09/04 01:34:22;;;;;;;31.40;17.23;;;;;;;12.72;86.36;102006.00;5039625;28;20071;-71
2021/09/04 01:36:47;;;;;;;35.22;17.73;;;;;;;12.81;86.43;102005.72;5023125;28;20084;-71
2021/09/04 01:39:13;;;;;;;33.63;17.95;;;;;;;12.67;86.08;102000.88;5039201;28;20342;-71
2021/09/04 01:41:40;;;;;;;32.35;17.55;;;;;;;12.65;86.36;102006.19;5039481;28;20029;-71
2021/09/04 01:44:05;;;;;;;32.08;17.83;;;;;;;12.64;86.39;102006.22;5039560;28;20346;-71
2021/09/04 01:46:31;;;;;;;30.35;18.08;;;;;;;12.48;86.96;101998.81;5039392;28;20037;-71
2021/09/04 01:48:59;;;;;;;30.63;17.67;;;;;;;12.60;86.61;102001.97;5039572;28;20037;-71
2021/09/04 01:51:25;;;;;;;30.77;18.25;;;;;;;12.40;87.14;102008.69;5039287;28;20033;-71
2021/09/04 01:53:50;;;;;;;33.88;17.98;;;;;;;12.66;86.43;102004.41;5039618;28;20078;-71
2021/09/04 01:56:16;;;;;;;31.23;17.13;;;;;;;12.60;86.40;102001.97;5039430;28;20219;-71
2021/09/04 01:58:41;;;;;;;30.85;17.65;;;;;;;12.57;86.27;101999.44;5040373;28;20041;-71
2021/09/04 02:01:07;;;;;;;32.53;17.98;;;;;;;12.66;86.17;102001.78;5003301;28;20037;-71
2021/09/04 02:03:33;;;;;;;29.52;16.23;;;;;;;12.32;87.16;102008.06;5029217;28;20033;-71
2021/09/04 02:05:59;;;;;;;34.47;18.13;;;;;;;12.35;87.07;101999.22;5039521;28;20033;-71
2021/09/04 02:08:24;;;;;;;26.90;16.52;;;;;;;12.59;86.35;102006.38;5039978;28;20229;-71
2021/09/04 02:10:49;;;;;;;34.80;17.02;;;;;;;12.33;87.10;102001.88;5040099;28;20033;-71
2021/09/04 02:13:15;;;;;;;32.85;17.08;;;;;;;12.46;86.46;101999.75;5039526;28;20045;-71
2021/09/04 02:15:40;;;;;;;30.95;18.00;;;;;;;12.49;86.62;102002.28;5040370;28;20040;-71
2021/09/04 02:18:06;;;;;;;33.65;16.75;;;;;;;12.35;86.83;101992.22;5040347;28;20333;-71
2021/09/04 02:20:34;;;;;;;31.60;17.23;;;;;;;12.39;87.02;101993.84;5039729;28;20104;-71
2021/09/04 02:22:59;;;;;;;34.77;18.20;;;;;;;12.43;86.78;101991.97;5039307;28;20109;-71
2021/09/04 02:25:25;;;;;;;30.52;16.80;;;;;;;12.41;86.63;101993.81;5038755;28;20337;-71
2021/09/04 02:27:50;;;;;;;39.88;17.90;;;;;;;12.25;87.28;101986.34;5040301;28;20033;-71
2021/09/04 02:30:15;;;;;;;28.70;18.17;;;;;;;12.20;87.38;101993.50;5038606;28;20061;-71
2021/09/04 02:32:41;;;;;;;37.30;19.15;;;;;;;12.18;87.55;101983.97;5039072;28;20032;-71
2021/09/04 02:35:07;;;;;;;30.55;18.35;;;;;;;12.16;87.65;101986.63;5037673;28;20056;-71
2021/09/04 02:37:32;;;;;;;29.80;16.58;;;;;;;12.31;87.26;101977.44;5037681;28;20107;-71
2021/09/04 02:39:57;;;;;;;39.70;18.55;;;;;;;12.12;87.93;101982.38;5039022;28;20091;-71
2021/09/04 02:42:23;;;;;;;30.05;17.40;;;;;;;12.25;87.27;101983.72;5038805;28;20240;-71
2021/09/04 02:44:48;;;;;;;38.85;18.73;;;;;;;12.21;87.11;101976.84;5039263;28;20096;-71
2021/09/04 02:47:15;;;;;;;30.75;17.90;;;;;;;12.17;87.50;101976.97;5039359;28;20038;-72
2021/09/04 02:49:41;;;;;;;37.20;17.85;;;;;;;12.24;87.60;101982.03;5040477;28;20025;-73
2021/09/04 02:52:06;;;;;;;37.22;18.58;;;;;;;12.19;87.64;101975.19;5040144;28;20051;-73
2021/09/04 02:54:32;;;;;;;30.77;17.77;;;;;;;12.06;87.98;101975.53;5040877;28;20041;-73
2021/09/04 02:56:57;;;;;;;34.55;18.52;;;;;;;12.14;87.62;101971.84;5044075;28;20029;-73
2021/09/04 02:59:23;;;;;;;32.40;18.33;;;;;;;12.04;88.01;101977.34;5043482;28;20084;-73
2021/09/04 03:01:48;;;;;;;32.20;18.55;;;;;;;12.16;87.55;101981.38;5043626;28;20263;-73
2021/09/04 03:04:13;;;;;;;35.17;18.27;;;;;;;12.13;87.79;101983.22;5043511;28;20195;-73
2021/09/04 03:06:39;;;;;;;31.30;16.90;;;;;;;12.20;87.13;101988.25;5043796;28;20025;-73
2021/09/04 03:09:04;;;;;;;29.80;17.33;;;;;;;12.07;87.85;101982.50;5043570;28;20060;-73
2021/09/04 03:11:30;;;;;;;34.60;18.50;;;;;;;12.03;88.15;101986.13;5025202;28;20328;-73
2021/09/04 03:13:55;;;;;;;38.70;19.48;;;;;;;12.01;88.21;101979.22;5042268;28;20104;-73
2021/09/04 03:16:21;;;;;;;33.42;18.60;;;;;;;12.26;87.01;101982.84;5043201;28;20041;-73
2021/09/04 03:18:46;;;;;;;31.63;18.17;;;;;;;12.35;87.07;101986.09;5042273;28;20037;-73
2021/09/04 03:21:12;;;;;;;33.33;17.77;;;;;;;12.08;87.37;101978.13;5043902;28;20473;-73
2021/09/04 03:23:37;;;;;;;35.10;17.85;;;;;;;12.03;87.66;101983.50;5042317;28;20024;-73
2021/09/04 03:26:03;;;;;;;32.47;18.83;;;;;;;11.97;87.97;101970.56;5043345;28;20045;-73
2021/09/04 03:28:28;;;;;;;34.85;18.48;;;;;;;12.07;87.35;101972.00;5043077;28;20031;-73
2021/09/04 03:30:54;;;;;;;34.13;17.45;;;;;;;11.90;88.34;101967.25;5043213;28;20030;-73
2021/09/04 03:33:19;;;;;;;36.25;18.58;;;;;;;11.96;88.08;101975.84;5043071;28;20320;-73
2021/09/04 03:35:45;;;;;;;29.75;18.00;;;;;;;11.98;88.17;101977.50;5043031;28;20099;-73
2021/09/04 03:38:10;;;;;;;33.83;17.80;;;;;;;11.83;89.01;101980.56;5043401;28;20040;-73
2021/09/04 03:40:36;;;;;;;31.65;18.38;;;;;;;11.91;88.27;101978.59;5042694;28;20049;-73
2021/09/04 03:43:01;;;;;;;34.95;18.27;;;;;;;11.88;88.58;101968.16;5043421;28;20279;-73
2021/09/04 03:45:27;;;;;;;41.47;19.80;;;;;;;11.94;88.47;101967.16;5042494;28;20045;-73
2021/09/04 03:47:52;;;;;;;39.15;19.15;;;;;;;11.78;89.26;101970.16;5043302;28;20377;-73
2021/09/04 03:50:17;;;;;;;33.65;17.92;;;;;;;12.12;88.41;101963.16;5042702;28;20375;-73
2021/09/04 03:52:43;;;;;;;38.20;18.92;;;;;;;11.86;88.96;101972.56;5042996;28;20232;-73
2021/09/04 03:55:08;;;;;;;35.55;19.52;;;;;;;11.86;88.69;101965.56;5041422;28;20328;-73
2021/09/04 03:57:34;;;;;;;35.30;19.60;;;;;;;11.99;88.62;101970.47;5041648;28;20034;-73
2021/09/04 03:59:59;;;;;;;36.92;20.77;;;;;;;12.05;88.23;101972.97;5042702;28;20198;-74
2021/09/04 04:02:25;;;;;;;46.10;23.15;;;;;;;12.12;88.16;101978.91;5042377;28;20099;-73
2021/09/04 04:04:50;;;;;;;74.03;32.25;;;;;;;12.16;87.66;101981.38;5042314;28;20049;-73
2021/09/04 04:07:16;;;;;;;66.22;35.00;;;;;;;11.89;88.64;101977.75;5042193;28;20044;-73
2021/09/04 04:09:41;;;;;;;62.33;30.33;;;;;;;11.98;88.67;101980.13;5042372;28;20029;-73
2021/09/04 04:12:07;;;;;;;67.40;29.70;;;;;;;12.10;88.24;101974.53;5041153;28;20041;-73
2021/09/04 04:14:32;;;;;;;57.85;27.10;;;;;;;12.09;88.67;101975.44;5024526;28;20037;-73
2021/09/04 04:16:57;;;;;;;48.90;23.52;;;;;;;12.23;88.07;101987.31;5042297;28;20037;-73
2021/09/04 04:19:23;;;;;;;44.20;23.65;;;;;;;12.18;88.47;101983.97;5042442;28;20025;-73
2021/09/04 04:21:48;;;;;;;50.78;26.48;;;;;;;12.09;88.63;101988.56;5041985;28;20021;-73
2021/09/04 04:24:14;;;;;;;50.00;22.23;;;;;;;12.44;87.26;101991.06;5040920;28;20033;-73
2021/09/04 04:26:39;;;;;;;43.47;22.20;;;;;;;12.22;88.35;101982.97;5041866;28;20053;-73
2021/09/04 04:29:05;;;;;;;48.08;21.50;;;;;;;12.36;87.97;101982.56;5041290;28;20041;-73
2021/09/04 04:31:30;;;;;;;41.88;21.27;;;;;;;12.33;88.05;101991.38;5041647;28;20029;-73
2021/09/04 04:33:56;;;;;;;42.67;20.33;;;;;;;12.81;85.93;101989.94;5042329;28;20033;-73
2021/09/04 04:36:21;;;;;;;40.08;21.73;;;;;;;12.41;88.12;101993.81;5024032;28;20041;-73
2021/09/04 04:38:47;;;;;;;42.28;21.40;;;;;;;12.32;88.47;101989.69;5041940;28;20033;-73
2021/09/04 04:41:12;;;;;;;36.83;21.65;;;;;;;12.40;88.40;101994.69;5041550;28;20032;-73
2021/09/04 04:43:37;;;;;;;38.35;22.27;;;;;;;12.25;88.96;101988.13;5041955;28;20032;-73
2021/09/04 04:46:03;;;;;;;44.13;22.73;;;;;;;12.30;88.90;101980.97;5041430;28;20068;-73
2021/09/04 04:48:28;;;;;;;37.88;21.48;;;;;;;12.54;88.18;101987.25;5041553;28;20383;-73
2021/09/04 04:50:54;;;;;;;37.13;21.10;;;;;;;12.35;88.52;101994.84;5040831;28;20035;-73
2021/09/04 04:53:19;;;;;;;46.67;23.15;;;;;;;12.38;88.50;101993.88;5041491;28;20033;-73
2021/09/04 04:55:45;;;;;;;43.72;23.38;;;;;;;12.35;88.68;101993.97;5041182;28;20044;-73
2021/09/04 04:58:10;;;;;;;44.92;22.88;;;;;;;12.43;88.65;101998.09;5041944;28;20033;-73
2021/09/04 05:00:36;;;;;;;44.88;21.67;;;;;;;12.36;89.13;101987.81;5041227;28;20075;-73
2021/09/04 05:03:03;;;;;;;45.88;23.65;;;;;;;12.23;89.77;101988.16;5041772;28;20321;-73
2021/09/04 05:05:28;;;;;;;44.47;23.48;;;;;;;12.24;89.92;101984.66;5039870;28;20224;-73
2021/09/04 05:07:54;;;;;;;44.67;24.25;;;;;;;12.29;89.42;101995.84;5040588;28;20147;-73
2021/09/04 05:10:19;;;;;;;51.03;25.50;;;;;;;12.28;89.43;101995.94;5041302;28;20339;-73
2021/09/04 05:12:44;;;;;;;48.67;24.15;;;;;;;12.21;89.93;102010.16;5041127;28;20354;-73
2021/09/04 05:15:10;;;;;;;45.13;23.67;;;;;;;12.30;89.55;102012.50;5041385;28;20033;-73
2021/09/04 05:17:35;;;;;;;43.80;22.58;;;;;;;12.17;90.35;102013.75;5039827;28;20048;-73
2021/09/04 05:20:01;;;;;;;43.03;22.92;;;;;;;12.28;89.81;102016.94;5041490;28;20037;-73
2021/09/04 05:22:26;;;;;;;45.03;24.80;;;;;;;12.25;89.98;102012.63;5040637;28;20041;-73
2021/09/04 05:24:51;;;;;;;55.20;26.90;;;;;;;12.31;89.94;102008.09;5041186;28;20317;-72
2021/09/04 05:27:17;;;;;;;46.67;24.48;;;;;;;12.41;89.52;102001.69;5051376;28;20116;-72
2021/09/04 05:29:42;;;;;;;48.55;24.17;;;;;;;12.53;88.55;102010.94;5039266;28;20064;-72
2021/09/04 05:32:08;;;;;;;44.50;23.33;;;;;;;12.40;89.50;102011.31;5050651;28;20111;-72
2021/09/04 05:34:33;;;;;;;51.55;28.35;;;;;;;12.58;88.63;102012.53;5053072;28;20033;-72
2021/09/04 05:36:59;;;;;;;54.47;26.05;;;;;;;12.48;89.18;102011.94;5038437;28;20033;-71
2021/09/04 05:39:25;;;;;;;50.53;24.77;;;;;;;12.54;89.39;102010.91;5031974;28;20041;-71
2021/09/04 05:41:51;;;;;;;49.67;25.40;;;;;;;12.57;88.91;102002.06;5044196;28;20070;-71
2021/09/04 05:44:16;;;;;;;56.58;24.83;;;;;;;12.59;88.71;102000.28;5040214;28;20108;-71
2021/09/04 05:46:41;;;;;;;49.95;23.92;;;;;;;12.75;87.86;102009.41;5047152;28;20271;-71
2021/09/04 05:49:07;;;;;;;52.45;24.55;;;;;;;12.71;88.13;101997.25;5031234;28;20046;-72
2021/09/04 05:51:32;;;;;;;40.45;23.00;;;;;;;12.56;88.40;102006.47;5029813;28;20216;-71
2021/09/04 05:53:57;;;;;;;49.28;23.65;;;;;;;12.60;88.64;101996.72;5030032;28;20045;-71
2021/09/04 05:56:23;;;;;;;41.13;22.45;;;;;;;12.56;89.27;102005.59;5029762;28;20045;-71
2021/09/04 05:58:48;;;;;;;39.25;22.80;;;;;;;12.59;88.62;101997.63;5030234;28;20041;-72
2021/09/04 06:01:14;;;;;;;40.20;23.25;;;;;;;12.67;88.52;102006.13;5028678;28;20033;-71
2021/09/04 06:03:39;;;;;;;53.30;26.77;;;;;;;12.55;88.37;102007.38;5029566;28;20206;-72
2021/09/04 06:06:04;;;;;;;48.30;28.63;;;;;;;12.62;88.24;102003.63;5028141;28;20427;-72
2021/09/04 06:08:30;;;;;;;47.25;24.45;;;;;;;12.56;88.40;102008.25;5030207;28;20076;-72
2021/09/04 06:10:55;;;;;;;44.72;23.20;;;;;;;12.67;88.42;101999.09;5027893;28;20048;-72
2021/09/04 06:13:21;;;;;;;41.65;22.23;;;;;;;12.71;88.27;101999.00;5032780;28;20056;-72
2021/09/04 06:15:46;;;;;;;40.67;20.02;;;;;;;12.86;86.95;102004.66;5029659;28;20041;-72
2021/09/04 06:18:12;;;;;;;38.65;22.88;;;;;;;12.73;87.86;102003.31;5029560;28;20210;-72
2021/09/04 06:20:37;;;;;;;41.20;22.48;;;;;;;12.67;88.12;101996.47;5011003;28;20036;-71
2021/09/04 06:23:03;;;;;;;44.75;24.25;;;;;;;12.60;88.96;102000.19;5040301;28;20033;-72
2021/09/04 06:25:28;;;;;;;55.55;27.73;;;;;;;12.66;88.70;102004.41;5034836;28;20092;-72
2021/09/04 06:27:54;;;;;;;51.53;26.80;;;;;;;12.53;89.16;102006.53;5029114;28;20555;-72
2021/09/04 06:30:19;;;;;;;54.10;24.17;;;;;;;12.67;88.87;102009.63;5030948;28;20087;-71
2021/09/04 06:32:44;;;;;;;49.13;23.95;;;;;;;12.73;88.34;102012.97;5033062;28;20397;-71
2021/09/04 06:35:10;;;;;;;46.03;23.20;;;;;;;12.81;87.48;102008.34;5036169;28;20104;-71
2021/09/04 06:37:36;;;;;;;40.47;22.60;;;;;;;12.91;87.76;102016.78;5042950;28;20041;-71
2021/09/04 06:40:01;;;;;;;45.00;22.42;;;;;;;12.85;87.81;102017.84;5040625;28;20355;-71
2021/09/04 06:42:26;;;;;;;40.67;21.65;;;;;;;12.89;87.53;102018.63;5043772;28;20216;-71
2021/09/04 06:44:52;;;;;;;51.40;25.52;;;;;;;12.71;87.93;102010.38;5039491;28;20079;-71
2021/09/04 06:47:17;;;;;;;42.33;22.92;;;;;;;12.98;87.42;102013.91;5041155;28;20059;-71
2021/09/04 06:49:43;;;;;;;38.13;21.58;;;;;;;13.39;85.00;102013.50;5035638;28;20341;-71
2021/09/04 06:52:08;;;;;;;39.90;22.13;;;;;;;13.22;85.74;102012.28;5026446;28;20072;-71
2021/09/04 06:54:34;;;;;;;41.15;21.60;;;;;;;13.02;86.65;102020.81;5040207;28;20033;-71
2021/09/04 06:57:00;;;;;;;39.90;18.95;;;;;;;13.40;85.17;102017.84;5038493;28;20036;-71
2021/09/04 06:59:25;;;;;;;34.83;19.77;;;;;;;13.48;84.29;102021.09;5029487;28;20041;-71
2021/09/04 07:01:52;;;;;;;44.90;21.30;;;;;;;13.16;86.22;102017.72;5040264;28;20037;-71
2021/09/04 07:04:17;;;;;;;46.53;22.50;;;;;;;13.43;84.97;102017.75;5031174;28;20121;-71
2021/09/04 07:06:43;;;;;;;33.03;19.55;;;;;;;13.59;83.49;102008.41;5032438;28;20049;-71
2021/09/04 07:09:08;;;;;;;36.60;20.20;;;;;;;13.10;85.93;102019.69;5041950;28;20108;-71
2021/09/04 07:11:34;;;;;;;38.10;21.77;;;;;;;13.10;86.22;102027.56;5028267;28;20103;-71
2021/09/04 07:13:59;;;;;;;43.80;22.13;;;;;;;13.02;85.90;102017.31;5033202;28;20046;-71
2021/09/04 07:16:25;;;;;;;36.15;19.95;;;;;;;13.49;83.87;102028.06;5033368;28;20041;-71
2021/09/04 07:18:50;;;;;;;38.25;20.30;;;;;;;13.54;83.67;102017.41;5029088;28;20041;-71
2021/09/04 07:21:16;;;;;;;38.25;20.63;;;;;;;13.36;84.80;102014.47;5026550;28;20350;-71
2021/09/04 07:23:41;;;;;;;33.60;18.67;;;;;;;13.81;81.94;102026.94;5033273;28;20038;-71
2021/09/04 07:26:06;;;;;;;33.17;19.92;;;;;;;13.38;83.97;102031.06;5035373;28;20348;-71
2021/09/04 07:28:32;;;;;;;31.80;19.23;;;;;;;13.72;83.10;102021.16;5028869;28;20029;-71
2021/09/04 07:30:59;;;;;;;29.10;17.85;;;;;;;13.56;82.96;102029.56;5028373;28;20075;-71
2021/09/04 07:33:25;;;;;;;37.83;20.10;;;;;;;13.50;84.02;102032.44;5034238;28;20060;-71
2021/09/04 07:35:50;;;;;;;20.15;12.18;;;;;;;14.82;78.01;102031.16;5030257;28;20062;-71
2021/09/04 07:38:16;;;;;;;30.52;18.55;;;;;;;13.93;81.81;102030.91;5030662;28;20050;-71
2021/09/04 07:40:42;;;;;;;37.92;19.55;;;;;;;13.46;83.58;102043.09;5033714;28;20040;-71
2021/09/04 07:43:08;;;;;;;29.85;19.42;;;;;;;13.80;82.48;102033.13;5031948;28;20053;-71
2021/09/04 07:45:36;;;;;;;34.03;18.90;;;;;;;13.76;82.49;102035.94;5040371;28;20037;-71
2021/09/04 07:48:02;;;;;;;36.15;17.90;;;;;;;13.87;81.88;102038.19;5039903;28;20108;-71
2021/09/04 07:50:28;;;;;;;27.83;15.88;;;;;;;14.00;81.39;102032.41;5039618;28;20332;-71
2021/09/04 07:52:53;;;;;;;27.33;16.85;;;;;;;14.11;80.20;102032.03;5034117;28;20030;-71
2021/09/04 07:55:19;;;;;;;34.22;19.00;;;;;;;13.62;83.23;102037.28;5032362;28;20236;-71
2021/09/04 07:57:45;;;;;;;35.40;19.27;;;;;;;13.75;82.48;102028.94;5037402;28;20042;-71
2021/09/04 08:00:10;;;;;;;31.83;18.75;;;;;;;13.53;82.96;102034.94;5039294;28;20282;-71
2021/09/04 08:02:36;;;;;;;25.05;15.43;;;;;;;13.99;81.80;102033.34;5030057;28;20029;-71
2021/09/04 08:05:01;;;;;;;31.48;17.55;;;;;;;13.95;81.85;102033.50;5031521;28;20045;-71
2021/09/04 08:07:27;;;;;;;30.65;17.83;;;;;;;13.75;82.55;102034.19;5038933;28;20040;-71
2021/09/04 08:09:52;;;;;;;29.52;18.95;;;;;;;13.46;84.12;102035.19;5027235;28;20100;-71
2021/09/04 08:12:18;;;;;;;35.00;18.55;;;;;;;13.74;82.91;102030.72;5039955;28;20064;-71
2021/09/04 08:14:43;;;;;;;30.63;19.45;;;;;;;13.49;83.47;102028.06;5036840;28;20034;-71
2021/09/04 08:17:08;;;;;;;28.05;17.23;;;;;;;13.78;82.73;102034.09;5009451;28;20202;-71
2021/09/04 08:19:34;;;;;;;33.80;19.90;;;;;;;13.63;82.89;102041.63;5023298;28;20041;-71
2021/09/04 08:22:01;;;;;;;35.50;19.52;;;;;;;13.61;82.16;102032.06;5030434;28;20026;-71
2021/09/04 08:24:26;;;;;;;30.88;19.58;;;;;;;13.66;82.24;102038.03;5033720;28;20037;-70
2021/09/04 08:26:52;;;;;;;28.80;18.42;;;;;;;13.74;82.79;102038.59;5029308;28;20037;-70
2021/09/04 08:29:17;;;;;;;28.70;18.65;;;;;;;13.58;82.32;102034.78;5039912;28;20037;-70
2021/09/04 08:31:43;;;;;;;33.20;18.08;;;;;;;13.63;82.41;102044.25;5031678;28;20041;-70
2021/09/04 08:34:08;;;;;;;26.65;15.95;;;;;;;14.36;79.66;102041.66;5027814;28;20033;-70
2021/09/04 08:36:33;;;;;;;17.80;12.73;;;;;;;14.63;78.16;102046.84;5020008;28;20291;-70
2021/09/04 08:38:59;;;;;;;21.63;13.75;;;;;;;14.82;77.01;102050.47;5039328;28;20041;-70
2021/09/04 08:41:24;;;;;;;20.27;14.75;;;;;;;14.84;76.92;102045.13;5040040;28;20200;-70
2021/09/04 08:43:50;;;;;;;23.17;14.60;;;;;;;15.03;75.54;102042.66;5040398;28;20033;-70
2021/09/04 08:46:15;;;;;;;25.35;16.92;;;;;;;15.10;75.52;102047.59;5039734;28;20045;-70
2021/09/04 08:48:44;;;;;;;19.20;12.57;;;;;;;15.21;75.30;102048.94;5034033;28;20106;-70
2021/09/04 08:51:09;;;;;;;20.52;13.18;;;;;;;15.26;74.41;102045.22;5030953;28;20034;-70
2021/09/04 08:53:34;;;;;;;20.50;12.95;;;;;;;15.07;75.04;102050.34;5025531;28;20104;-70
2021/09/04 08:56:00;;;;;;;19.15;12.18;;;;;;;15.26;74.59;102052.25;5026133;28;20076;-70
2021/09/04 08:58:25;;;;;;;17.27;12.40;;;;;;;15.26;74.31;102046.97;5032896;28;20030;-70
2021/09/04 09:00:51;;;;;;;18.75;12.02;;;;;;;15.27;73.62;102064.53;5030542;28;20044;-70
2021/09/04 09:03:21;;;;;;;16.42;12.50;;;;;;;15.36;74.60;102054.44;5031323;28;20029;-70
2021/09/04 09:05:46;;;;;;;22.83;13.75;;;;;;;14.83;75.51;102054.84;5039562;28;20355;-70
2021/09/04 09:08:16;;;;;;;19.63;14.20;;;;;;;15.16;74.29;102065.81;5039287;28;20263;-71
2021/09/04 09:10:42;;;;;;;19.67;13.75;;;;;;;14.92;74.89;102062.38;5039407;28;20041;-71
2021/09/04 09:13:07;;;;;;;17.50;12.30;;;;;;;15.21;74.11;102055.09;5039191;28;20040;-70
2021/09/04 09:15:34;;;;;;;18.40;13.45;;;;;;;15.20;73.94;102050.72;5037345;28;20063;-70
2021/09/04 09:18:00;;;;;;;17.42;13.05;;;;;;;15.48;73.48;102058.38;5038457;28;20033;-70
2021/09/04 09:20:26;;;;;;;13.63;10.98;;;;;;;15.95;71.46;102037.91;5030994;28;20037;-70
2021/09/04 09:22:51;;;;;;;14.68;11.35;;;;;;;16.27;70.65;102044.41;5046591;28;20036;-71
2021/09/04 09:25:17;;;;;;;19.55;12.73;;;;;;;16.16;70.94;102038.75;5035641;28;20105;-70
2021/09/04 09:28:02;;;;;;;19.70;12.27;;;;;;;16.20;69.83;102040.31;5015672;28;20025;-70
2021/09/04 09:30:46;;;;;;;26.63;13.70;;;;;;;15.40;72.46;102044.63;5031828;28;20037;-70
2021/09/04 09:33:14;;;;;;;22.00;14.05;;;;;;;16.43;70.23;102032.19;5028598;28;20068;-70
2021/09/04 09:35:41;;;;;;;18.25;12.43;;;;;;;16.96;68.20;102035.91;5029465;28;20328;-70
2021/09/04 09:38:07;;;;;;;25.27;14.90;;;;;;;16.48;68.91;102032.84;5033507;28;20037;-70
2021/09/04 09:40:33;;;;;;;15.32;12.95;;;;;;;16.37;69.49;102037.78;5034183;28;20235;-70
2021/09/04 09:42:58;;;;;;;18.63;14.70;;;;;;;16.00;69.87;102026.22;5031613;28;20032;-70
2021/09/04 09:45:41;;;;;;;18.13;13.02;;;;;;;16.18;70.08;102023.69;5031877;28;20052;-70
2021/09/04 09:48:06;;;;;;;18.00;13.60;;;;;;;16.48;69.40;102030.22;5028884;28;20042;-70
2021/09/04 09:50:33;;;;;;;19.15;12.10;;;;;;;16.99;67.91;102034.88;5031182;28;20051;-70
2021/09/04 09:52:58;;;;;;;21.52;13.88;;;;;;;16.38;68.95;102039.47;5026097;28;20382;-71
2021/09/04 09:55:24;;;;;;;21.00;13.65;;;;;;;16.75;67.62;102029.81;4997990;28;20104;-70
2021/09/04 09:57:49;;;;;;;15.65;11.90;;;;;;;16.57;68.99;102034.22;5009044;28;20075;-70
2021/09/04 10:00:15;;;;;;;19.08;12.68;;;;;;;16.71;68.24;102036.19;5037203;28;20040;-70
2021/09/04 10:02:41;;;;;;;18.98;12.10;;;;;;;17.48;66.78;102028.94;5023985;28;20025;-70
2021/09/04 10:05:07;;;;;;;24.75;14.23;;;;;;;16.88;68.09;102032.75;5036981;28;20029;-71
2021/09/04 10:07:32;;;;;;;22.17;14.68;;;;;;;16.55;68.78;102036.03;5036440;28;20083;-71
2021/09/04 10:09:57;;;;;;;18.27;15.07;;;;;;;16.39;69.87;102032.41;5037486;28;20044;-71
2021/09/04 10:12:24;;;;;;;19.08;13.90;;;;;;;17.20;66.14;102027.69;5038047;28;20056;-71
2021/09/04 10:14:51;;;;;;;20.15;12.15;;;;;;;17.88;64.36;102024.25;5037338;28;20057;-71
2021/09/04 10:17:16;;;;;;;18.25;12.35;;;;;;;18.54;62.52;102026.88;5037079;28;20032;-71
2021/09/04 10:19:42;;;;;;;16.73;13.68;;;;;;;18.18;63.70;102021.78;5019378;28;20086;-71
2021/09/04 10:22:09;;;;;;;19.30;13.60;;;;;;;17.88;63.89;102017.16;5036651;28;20025;-71
2021/09/04 10:24:50;;;;;;;20.35;13.25;;;;;;;18.92;61.71;102012.41;5036900;28;20368;-71
2021/09/04 10:27:28;;;;;;;18.52;14.75;;;;;;;18.72;60.75;102011.72;5036877;28;20033;-71
2021/09/04 10:29:54;;;;;;;19.20;13.35;;;;;;;18.88;61.11;102013.53;5038043;28;20025;-71
2021/09/04 10:32:19;;;;;;;17.58;13.07;;;;;;;19.29;59.77;102010.28;5036120;28;20197;-71
2021/09/04 10:34:46;;;;;;;15.55;12.68;;;;;;;19.93;57.48;102009.06;5037032;28;20045;-71
2021/09/04 10:37:12;;;;;;;19.33;13.65;;;;;;;18.96;60.68;102009.50;5036755;28;20103;-71
2021/09/04 10:39:46;;;;;;;18.07;13.73;;;;;;;19.34;58.96;102013.53;5037793;28;20347;-71
2021/09/04 10:42:16;;;;;;;17.95;13.57;;;;;;;19.67;58.33;102007.97;5035316;28;20491;-72
2021/09/04 10:44:46;;;;;;;17.65;13.07;;;;;;;19.13;59.70;102007.66;5035270;28;20239;-72
2021/09/04 10:47:12;;;;;;;18.02;13.88;;;;;;;19.35;59.11;101999.28;5036885;28;20048;-72
2021/09/04 10:49:39;;;;;;;19.42;12.07;;;;;;;20.38;56.63;101986.81;5034983;28;20263;-71
2021/09/04 10:52:04;;;;;;;16.25;14.00;;;;;;;18.65;61.87;101998.88;5035125;28;20033;-72
2021/09/04 10:54:40;;;;;;;17.45;14.27;;;;;;;18.95;60.60;101997.13;5036295;28;20132;-72
2021/09/04 10:57:13;;;;;;;15.18;13.27;;;;;;;18.94;61.47;101994.59;5032216;28;20041;-72
2021/09/04 11:00:00;;;;;;;16.60;13.70;;;;;;;19.01;60.78;102000.38;5031744;28;20040;-71
2021/09/04 11:02:41;;;;;;;19.88;14.07;;;;;;;18.46;62.14;101999.03;5032709;28;20038;-71
2021/09/04 11:05:26;;;;;;;18.80;13.52;;;;;;;18.77;60.31;101999.06;5037399;28;20049;-71